createdAt,value
2023-05-19T00:01:17.576Z,81.44
2023-05-19T00:04:21.345Z,81.05
2023-05-19T00:07:23.772Z,81.72
2023-05-19T00:10:31.652Z,81.73
2023-05-19T00:13:34.625Z,80.37
2023-05-19T00:16:38.113Z,81.17
2023-05-19T00:19:40.569Z,81.23
2023-05-19T00:22:45.034Z,81.17
2023-05-19T00:25:47.479Z,81.62
2023-05-19T00:28:50.355Z,80.91
2023-05-19T00:31:52.808Z,81.11
2023-05-19T00:34:55.207Z,81.26
2023-05-19T00:37:57.619Z,81.46
2023-05-19T00:41:00.645Z,81.40
2023-05-19T00:44:03.027Z,80.82
2023-05-19T00:47:05.445Z,81.18
2023-05-19T00:50:08.061Z,81.15
2023-05-19T00:53:10.379Z,81.05
2023-05-19T00:56:12.749Z,81.36
2023-05-19T00:59:15.183Z,81.95
2023-05-19T01:02:18.158Z,81.74
2023-05-19T01:05:20.536Z,81.93
2023-05-19T01:08:22.973Z,81.61
2023-05-19T01:11:25.339Z,81.60
2023-05-19T01:14:29.450Z,81.02
2023-05-19T01:17:46.001Z,81.29
2023-05-19T01:20:52.635Z,81.67
2023-05-19T01:24:23.021Z,81.41
2023-05-19T01:27:54.130Z,82.53
2023-05-19T01:30:57.084Z,81.45
2023-05-19T01:33:59.495Z,81.80
2023-05-19T01:37:01.958Z,81.32
2023-05-19T01:40:04.895Z,80.97
2023-05-19T01:43:08.528Z,81.42
2023-05-19T01:46:11.087Z,82.17
2023-05-19T01:49:13.587Z,81.95
2023-05-19T01:52:15.955Z,82.18
2023-05-19T01:55:18.319Z,82.50
2023-05-19T01:58:20.886Z,82.13
2023-05-19T02:01:29.600Z,82.26
2023-05-19T02:04:51.677Z,81.25
2023-05-19T02:08:11.783Z,81.47
2023-05-19T02:11:26.368Z,81.24
2023-05-19T02:14:52.917Z,81.92
2023-05-19T02:17:56.021Z,81.97
2023-05-19T02:20:58.345Z,81.82
2023-05-19T02:24:00.939Z,81.70
2023-05-19T02:27:03.427Z,81.40
2023-05-19T02:30:06.544Z,81.40
2023-05-19T02:33:08.969Z,81.60
2023-05-19T02:36:11.403Z,81.78
2023-05-19T02:39:13.864Z,81.88
2023-05-19T02:42:18.310Z,82.01
2023-05-19T02:45:20.711Z,82.65
2023-05-19T02:48:23.105Z,82.48
2023-05-19T02:51:25.455Z,83.01
2023-05-19T02:54:27.845Z,83.14
2023-05-19T02:57:31.865Z,82.72
2023-05-19T03:00:34.509Z,82.72
2023-05-19T03:03:37.151Z,82.85
2023-05-19T03:06:40.071Z,82.63
2023-05-19T03:09:42.458Z,82.63
2023-05-19T03:12:44.844Z,82.59
2023-05-19T03:15:47.605Z,82.87
2023-05-19T03:18:50.057Z,82.37
2023-05-19T03:21:52.732Z,82.26
2023-05-19T03:24:55.395Z,82.38
2023-05-19T03:27:57.893Z,82.37
2023-05-19T03:31:00.467Z,82.65
2023-05-19T03:34:08.515Z,82.29
2023-05-19T03:37:11.092Z,82.22
2023-05-19T03:40:15.734Z,82.00
2023-05-19T03:43:19.849Z,82.36
2023-05-19T03:46:28.462Z,81.83
2023-05-19T03:49:49.399Z,82.21
2023-05-19T03:53:10.432Z,81.86
2023-05-19T03:56:18.244Z,81.72
2023-05-19T03:59:20.719Z,81.18
2023-05-19T04:02:23.118Z,81.52
2023-05-19T04:05:25.569Z,77.12
2023-05-19T04:08:29.385Z,75.15
2023-05-19T04:11:31.953Z,73.32
2023-05-19T04:14:34.332Z,71.10
2023-05-19T04:17:36.850Z,69.92
2023-05-19T04:20:39.186Z,68.59
2023-05-19T04:23:41.711Z,69.22
2023-05-19T04:26:46.253Z,69.94
2023-05-19T04:29:50.553Z,69.88
2023-05-19T04:32:53.017Z,71.49
2023-05-19T04:35:55.901Z,71.66
2023-05-19T04:39:02.393Z,71.59
2023-05-19T04:42:05.762Z,73.30
2023-05-19T04:45:14.040Z,75.32
2023-05-19T04:48:19.255Z,76.93
2023-05-19T04:52:31.825Z,77.08
2023-05-19T04:55:34.819Z,77.61
2023-05-19T04:58:39.709Z,77.75
2023-05-19T05:01:44.180Z,78.66
2023-05-19T05:04:49.153Z,79.47
2023-05-19T05:07:54.194Z,79.91
2023-05-19T05:10:58.839Z,80.30
2023-05-19T05:14:02.063Z,80.94
2023-05-19T05:17:06.259Z,80.96
2023-05-19T05:20:09.543Z,81.63
2023-05-19T05:23:15.281Z,81.56
2023-05-19T05:26:20.011Z,80.97
2023-05-19T05:29:24.969Z,81.24
2023-05-19T05:32:28.251Z,81.43
2023-05-19T05:35:31.160Z,81.06
2023-05-19T05:38:33.926Z,80.62
2023-05-19T05:41:36.503Z,80.62
2023-05-19T05:44:45.300Z,81.07
2023-05-19T05:47:48.022Z,80.95
2023-05-19T05:50:51.002Z,80.94
2023-05-19T05:53:57.390Z,80.85
2023-05-19T05:57:07.464Z,80.57
2023-05-19T06:00:15.509Z,81.20
2023-05-19T06:03:18.048Z,80.22
2023-05-19T06:06:21.388Z,79.85
2023-05-19T06:09:23.811Z,79.78
2023-05-19T06:12:27.385Z,79.46
2023-05-19T06:15:30.404Z,79.21
2023-05-19T06:18:40.647Z,78.17
2023-05-19T06:21:43.324Z,79.22
2023-05-19T06:24:45.921Z,78.04
2023-05-19T06:27:48.464Z,78.28
2023-05-19T06:30:51.844Z,78.02
2023-05-19T06:34:17.726Z,77.58
2023-05-19T06:37:23.130Z,77.98
2023-05-19T06:40:25.942Z,77.45
2023-05-19T06:43:30.320Z,76.79
2023-05-19T06:46:37.786Z,75.21
2023-05-19T06:49:40.795Z,75.89
2023-05-19T06:52:44.412Z,75.37
2023-05-19T06:55:58.736Z,75.67
2023-05-19T06:59:04.149Z,75.03
2023-05-19T07:02:10.953Z,74.49
2023-05-19T07:05:13.482Z,75.29
2023-05-19T07:08:16.005Z,74.19
2023-05-19T07:11:18.916Z,74.77
2023-05-19T07:14:23.421Z,75.75
2023-05-19T07:17:26.025Z,75.98
2023-05-19T07:20:28.607Z,74.80
2023-05-19T07:23:32.513Z,74.99
2023-05-19T07:26:34.949Z,74.17
2023-05-19T07:29:37.415Z,74.72
2023-05-19T07:32:39.798Z,73.14
2023-05-19T07:35:42.235Z,73.06
2023-05-19T07:38:48.519Z,73.46
2023-05-19T07:41:54.375Z,73.21
2023-05-19T07:44:56.778Z,71.12
2023-05-19T07:47:59.356Z,71.77
2023-05-19T07:51:02.404Z,71.89
2023-05-19T07:54:04.797Z,71.80
2023-05-19T07:57:07.167Z,72.36
2023-05-19T08:00:09.991Z,72.07
2023-05-19T08:03:17.903Z,72.45
2023-05-19T08:06:21.336Z,72.28
2023-05-19T08:09:23.690Z,72.78
2023-05-19T08:12:26.109Z,72.12
2023-05-19T08:15:28.612Z,71.41
2023-05-19T08:18:31.238Z,72.26
2023-05-19T08:21:34.733Z,70.61
2023-05-19T08:24:37.294Z,71.34
2023-05-19T08:27:39.642Z,71.92
2023-05-19T08:30:41.993Z,71.23
2023-05-19T08:33:44.643Z,70.63
2023-05-19T09:30:53.553Z,62.72
2023-05-19T09:33:55.930Z,63.15
2023-05-19T09:37:00.036Z,62.52
2023-05-19T09:40:02.463Z,61.49
2023-05-19T09:43:05.669Z,59.86
2023-05-19T09:46:10.582Z,61.60
2023-05-19T09:49:14.514Z,62.29
2023-05-19T09:52:16.891Z,62.03
2023-05-19T09:55:23.249Z,61.43
2023-05-19T09:58:26.582Z,59.45
2023-05-19T10:01:29.288Z,60.21
2023-05-19T10:04:32.005Z,61.27
2023-05-19T10:07:34.513Z,61.69
2023-05-19T10:10:38.165Z,58.98
2023-05-19T10:13:40.663Z,59.92
2023-05-19T10:16:43.666Z,60.06
2023-05-19T10:19:46.192Z,59.19
2023-05-19T10:22:48.854Z,59.23
2023-05-19T10:25:52.165Z,59.36
2023-05-19T10:28:54.530Z,57.87
2023-05-19T10:31:59.369Z,58.30
2023-05-19T10:35:13.934Z,59.10
2023-05-19T10:38:43.131Z,57.56
2023-05-19T10:42:09.864Z,58.04
2023-05-19T10:45:20.312Z,58.00
2023-05-19T10:48:23.332Z,59.09
2023-05-19T10:51:32.391Z,58.39
2023-05-19T10:54:47.199Z,56.58
2023-05-19T10:57:58.396Z,56.55
2023-05-19T11:01:01.449Z,57.08
2023-05-19T11:04:14.102Z,56.25
2023-05-19T11:07:24.649Z,56.11
2023-05-19T11:10:27.037Z,55.46
2023-05-19T11:13:29.394Z,54.99
2023-05-19T11:16:32.447Z,52.61
2023-05-19T11:19:35.438Z,52.91
2023-05-19T11:22:38.972Z,53.99
2023-05-19T11:25:48.789Z,54.29
2023-05-19T11:28:51.270Z,53.00
2023-05-19T11:31:53.706Z,51.83
2023-05-19T11:34:56.734Z,50.77
2023-05-19T11:37:59.243Z,51.27
2023-05-19T11:41:01.917Z,52.70
2023-05-19T11:44:04.395Z,52.83
2023-05-19T11:47:07.095Z,54.24
2023-05-19T11:50:11.376Z,54.55
2023-05-19T11:53:13.865Z,55.20
2023-05-19T11:56:16.481Z,53.64
2023-05-19T11:59:18.885Z,52.71
2023-05-19T12:02:22.688Z,55.19
2023-05-19T12:05:25.758Z,54.69
2023-05-19T12:08:29.524Z,55.66
2023-05-19T12:11:31.991Z,53.66
2023-05-19T12:14:34.652Z,52.28
2023-05-19T12:17:37.146Z,50.80
2023-05-19T12:20:39.588Z,52.09
2023-05-19T12:23:42.449Z,51.95
2023-05-19T12:26:44.842Z,51.47
2023-05-19T12:29:52.360Z,52.22
2023-05-19T12:32:56.688Z,51.57
2023-05-19T12:35:59.119Z,50.99
2023-05-19T12:39:01.949Z,52.23
2023-05-19T12:42:04.873Z,52.70
2023-05-19T12:45:07.930Z,52.76
2023-05-19T12:48:16.038Z,52.44
2023-05-19T12:51:19.488Z,52.69
2023-05-19T12:54:22.365Z,52.14
2023-05-19T12:57:26.223Z,53.21
2023-05-19T13:00:31.242Z,53.53
2023-05-19T13:03:34.324Z,55.13
2023-05-19T13:06:36.920Z,56.58
2023-05-19T13:09:39.352Z,55.49
2023-05-19T13:12:41.729Z,55.49
2023-05-19T13:15:44.968Z,52.60
2023-05-19T13:18:47.469Z,52.65
2023-05-19T13:21:51.252Z,52.42
2023-05-19T13:24:53.633Z,54.61
2023-05-19T13:27:59.480Z,54.31
2023-05-19T13:31:01.946Z,55.81
2023-05-19T13:34:04.414Z,55.95
2023-05-19T13:37:10.050Z,55.78
2023-05-19T13:40:13.417Z,57.25
2023-05-19T13:43:15.813Z,56.00
2023-05-19T13:46:19.263Z,55.34
2023-05-19T13:49:24.900Z,54.77
2023-05-19T13:52:29.042Z,55.24
2023-05-19T13:55:33.129Z,54.45
2023-05-19T13:58:35.535Z,52.69
2023-05-19T14:01:38.052Z,53.48
2023-05-19T14:04:40.627Z,53.94
2023-05-19T14:07:43.093Z,54.04
2023-05-19T14:10:48.616Z,51.85
2023-05-19T14:13:52.720Z,52.41
2023-05-19T14:16:56.156Z,52.59
2023-05-19T14:19:58.556Z,51.33
2023-05-19T14:23:00.910Z,52.06
2023-05-19T14:26:03.305Z,51.77
2023-05-19T14:29:06.113Z,50.67
2023-05-19T14:32:08.580Z,51.13
2023-05-19T14:35:11.194Z,50.83
2023-05-19T14:38:13.675Z,50.86
2023-05-19T14:41:16.069Z,50.56
2023-05-19T14:44:18.805Z,51.17
2023-05-19T14:47:21.518Z,51.42
2023-05-19T14:50:24.026Z,50.84
2023-05-19T14:53:26.490Z,50.20
2023-05-19T14:56:28.955Z,51.84
2023-05-19T14:59:31.469Z,51.30
2023-05-19T15:02:33.918Z,51.03
2023-05-19T15:05:40.337Z,50.85
2023-05-19T15:08:42.774Z,52.34
2023-05-19T15:11:45.153Z,52.54
2023-05-19T15:14:47.571Z,52.19
2023-05-19T15:17:50.074Z,52.54
2023-05-19T15:20:52.453Z,52.80
2023-05-19T15:23:54.851Z,54.02
2023-05-19T15:26:57.268Z,55.26
2023-05-19T15:29:59.708Z,54.07
2023-05-19T15:33:02.115Z,54.36
2023-05-19T15:36:04.732Z,53.69
2023-05-19T15:39:07.142Z,53.69
2023-05-19T15:42:09.547Z,53.86
2023-05-19T15:45:12.007Z,53.61
2023-05-19T15:48:14.362Z,52.41
2023-05-19T15:51:16.721Z,52.99
2023-05-19T15:54:19.070Z,54.19
2023-05-19T15:57:21.430Z,55.12
2023-05-19T16:00:23.944Z,53.95
2023-05-19T16:03:26.463Z,54.81
2023-05-19T16:06:29.034Z,54.11
2023-05-19T16:09:31.434Z,54.42
2023-05-19T16:12:33.923Z,53.09
2023-05-19T16:15:36.634Z,53.92
2023-05-19T16:18:39.022Z,54.18
2023-05-19T16:21:41.427Z,54.92
2023-05-19T16:24:43.890Z,56.15
2023-05-19T16:27:46.280Z,55.47
2023-05-19T16:30:48.686Z,54.90
2023-05-19T16:33:51.098Z,55.10
2023-05-19T16:36:53.491Z,56.18
2023-05-19T16:39:55.960Z,56.68
2023-05-19T16:42:58.461Z,56.34
2023-05-19T16:46:03.554Z,57.48
2023-05-19T16:49:06.655Z,57.47
2023-05-19T16:52:09.025Z,57.06
2023-05-19T16:55:11.570Z,57.36
2023-05-19T16:58:14.053Z,58.28
2023-05-19T17:01:17.489Z,59.30
2023-05-19T17:04:19.910Z,59.76
2023-05-19T17:07:22.324Z,61.27
2023-05-19T17:10:24.680Z,61.44
2023-05-19T17:13:28.819Z,62.21
2023-05-19T17:16:31.277Z,62.38
2023-05-19T17:19:33.808Z,62.99
2023-05-19T17:22:36.653Z,63.37
2023-05-19T17:25:39.066Z,64.02
2023-05-19T17:28:41.458Z,64.32
2023-05-19T17:31:44.123Z,64.14
2023-05-19T17:34:46.499Z,64.32
2023-05-19T17:37:48.857Z,64.71
2023-05-19T17:40:51.260Z,64.42
2023-05-19T17:43:53.676Z,64.45
2023-05-19T17:46:56.277Z,64.40
2023-05-19T17:49:58.802Z,64.59
2023-05-19T17:53:01.678Z,65.35
2023-05-19T17:56:06.638Z,65.65
2023-05-19T17:59:09.320Z,65.84
2023-05-19T18:02:12.220Z,66.89
2023-05-19T18:05:15.458Z,66.81
2023-05-19T18:08:18.270Z,66.56
2023-05-19T18:11:21.435Z,67.43
2023-05-19T18:14:23.881Z,66.88
2023-05-19T18:17:26.333Z,67.45
2023-05-19T18:20:30.924Z,67.82
2023-05-19T18:23:33.521Z,67.78
2023-05-19T18:26:37.888Z,67.82
2023-05-19T18:29:40.311Z,67.98
2023-05-19T18:32:42.775Z,68.59
2023-05-19T18:35:46.150Z,68.35
2023-05-19T18:38:48.530Z,68.35
2023-05-19T18:41:51.026Z,68.53
2023-05-19T18:44:53.434Z,69.49
2023-05-19T18:47:56.345Z,69.57
2023-05-19T18:50:59.356Z,70.03
2023-05-19T18:54:01.904Z,69.71
2023-05-19T18:57:04.819Z,69.67
2023-05-19T19:00:07.964Z,69.95
2023-05-19T19:03:11.872Z,69.85
2023-05-19T19:06:14.313Z,69.60
2023-05-19T19:09:16.729Z,69.91
2023-05-19T19:12:20.406Z,70.08
2023-05-19T19:15:23.105Z,70.17
2023-05-19T19:18:26.637Z,70.23
2023-05-19T19:21:29.941Z,70.43
2023-05-19T19:24:32.281Z,70.24
2023-05-19T19:27:35.752Z,70.42
2023-05-19T19:30:38.153Z,70.79
2023-05-19T19:33:43.364Z,70.95
2023-05-19T19:36:47.893Z,70.43
2023-05-19T19:39:50.418Z,70.94
2023-05-19T19:42:52.920Z,71.17
2023-05-19T19:46:01.874Z,71.12
2023-05-19T19:49:04.370Z,71.23
2023-05-19T19:52:06.763Z,71.43
2023-05-19T19:55:09.809Z,71.88
2023-05-19T19:58:12.682Z,71.19
2023-05-19T20:01:16.019Z,71.64
2023-05-19T20:04:18.674Z,71.91
2023-05-19T20:07:23.379Z,71.75
2023-05-19T20:10:25.822Z,71.81
2023-05-19T20:13:28.591Z,71.98
2023-05-19T20:16:32.035Z,71.38
2023-05-19T20:19:34.544Z,70.84
2023-05-19T20:22:37.132Z,71.31
2023-05-19T20:25:57.916Z,71.27
2023-05-19T20:29:05.317Z,71.44
2023-05-19T20:32:07.773Z,72.04
2023-05-19T20:35:10.290Z,71.72
2023-05-19T20:38:12.680Z,72.56
2023-05-19T20:41:15.248Z,72.66
2023-05-19T20:44:17.703Z,73.40
2023-05-19T20:47:21.076Z,73.52
2023-05-19T20:50:23.519Z,73.87
2023-05-19T20:53:25.897Z,73.75
2023-05-19T20:56:28.288Z,73.69
2023-05-19T20:59:30.801Z,73.44
2023-05-19T21:02:33.243Z,73.39
2023-05-19T21:05:36.037Z,73.82
2023-05-19T21:08:38.429Z,73.41
2023-05-19T21:11:41.116Z,73.91
2023-05-19T21:14:43.485Z,73.73
2023-05-19T21:17:46.734Z,74.28
2023-05-19T21:20:49.214Z,74.34
2023-05-19T21:23:51.922Z,74.82
2023-05-19T21:26:54.327Z,75.14
2023-05-19T21:29:56.782Z,74.88
2023-05-19T21:32:59.454Z,75.28
2023-05-19T21:36:01.958Z,74.68
2023-05-19T21:39:04.658Z,74.81
2023-05-19T21:42:07.117Z,74.84
2023-05-19T21:45:09.984Z,74.42
2023-05-19T21:48:12.418Z,74.76
2023-05-19T21:51:14.874Z,74.84
2023-05-19T21:54:17.309Z,74.72
2023-05-19T21:57:19.722Z,74.59
2023-05-19T22:00:22.795Z,74.50
2023-05-19T22:03:25.438Z,74.59
2023-05-19T22:06:27.905Z,74.84
2023-05-19T22:09:30.362Z,74.64
2023-05-19T22:12:33.241Z,74.81
2023-05-19T22:15:35.639Z,74.38
2023-05-19T22:18:38.187Z,74.09
2023-05-19T22:21:41.098Z,74.30
2023-05-19T22:24:43.557Z,74.66
2023-05-19T22:27:46.066Z,74.64
2023-05-19T22:30:48.456Z,73.99
2023-05-19T22:33:50.920Z,74.09
2023-05-19T22:36:53.364Z,73.96
2023-05-19T22:39:55.761Z,73.50
2023-05-19T22:42:58.145Z,73.84
2023-05-19T22:46:00.711Z,73.86
2023-05-19T22:49:03.264Z,73.65
2023-05-19T22:52:06.134Z,73.71
2023-05-19T22:55:08.953Z,73.68
2023-05-19T22:58:11.356Z,73.94
2023-05-19T23:01:13.838Z,73.31
2023-05-19T23:04:16.327Z,73.50
2023-05-19T23:07:18.694Z,73.21
2023-05-19T23:10:21.149Z,73.01
2023-05-19T23:13:23.523Z,73.79
2023-05-19T23:16:26.113Z,73.64
2023-05-19T23:19:29.219Z,73.74
2023-05-19T23:22:31.728Z,74.59
2023-05-19T23:25:34.332Z,74.21
2023-05-19T23:28:36.898Z,73.93
2023-05-19T23:31:40.940Z,73.12
2023-05-19T23:34:43.392Z,73.59
2023-05-19T23:37:45.794Z,73.90
2023-05-19T23:40:48.166Z,74.31
2023-05-19T23:43:50.564Z,73.67
2023-05-19T23:46:53.054Z,74.16
2023-05-19T23:49:55.482Z,73.41
2023-05-19T23:52:57.882Z,73.46
2023-05-19T23:56:00.273Z,73.58
2023-05-19T23:59:02.653Z,73.44
